Time;durP1;ratioP1;P1;durP2;ratioP2;P2;SDS_P1;SDS_P2;PMS_P1;PMS_P2;Temp;Humidity;BMP_temperature;BMP_pressure;BME280_temperature;BME280_humidity;BME280_pressure;Samples;Min_cycle;Max_cycle;Signal;HPM_P1;HPM_P2
2021/01/27 00:02:01;;;;;;;21.65;11.95;;;;;;;0.34;88.67;100917.03;124636;1102;64998;-83
2021/01/27 00:04:28;;;;;;;18.50;8.95;;;;;;;0.36;88.69;100909.94;124746;1106;64841;-84
2021/01/27 00:06:54;;;;;;;21.33;10.80;;;;;;;0.37;88.42;100914.23;124610;1105;63863;-83
2021/01/27 00:09:20;;;;;;;22.10;11.27;;;;;;;0.39;88.93;100907.97;124524;1105;64917;-84
2021/01/27 00:11:47;;;;;;;21.87;12.70;;;;;;;0.40;89.06;100908.80;124689;1103;64994;-85
2021/01/27 00:14:13;;;;;;;18.13;10.77;;;;;;;0.40;88.52;100908.80;124641;1106;64966;-85
2021/01/27 00:16:39;;;;;;;17.87;10.40;;;;;;;0.39;88.97;100905.36;124529;1106;65237;-84
2021/01/27 00:19:06;;;;;;;25.73;12.93;;;;;;;0.42;89.01;100908.70;124591;1105;65109;-84
2021/01/27 00:21:32;;;;;;;26.00;12.97;;;;;;;0.45;89.04;100911.09;124574;1102;64915;-84
2021/01/27 00:23:58;;;;;;;24.43;13.30;;;;;;;0.47;88.84;100911.82;124682;1102;64966;-84
2021/01/27 00:26:25;;;;;;;26.27;12.15;;;;;;;0.49;89.12;100909.94;124645;1103;64959;-85
2021/01/27 00:28:51;;;;;;;27.27;13.27;;;;;;;0.53;89.53;100911.41;124817;1102;65304;-84
2021/01/27 00:31:17;;;;;;;18.80;10.57;;;;;;;0.55;89.31;100899.95;124707;1106;64854;-84
2021/01/27 00:33:43;;;;;;;19.60;10.03;;;;;;;0.57;89.06;100898.06;124717;1105;65266;-84
2021/01/27 00:36:10;;;;;;;20.07;10.80;;;;;;;0.59;88.98;100898.77;124584;1105;64949;-83
2021/01/27 00:38:36;;;;;;;26.60;13.07;;;;;;;0.63;89.05;100891.56;124383;1106;64917;-84
2021/01/27 00:41:03;;;;;;;24.43;12.53;;;;;;;0.65;89.34;100879.24;124323;1106;64975;-83
2021/01/27 00:43:29;;;;;;;26.10;13.37;;;;;;;0.69;88.91;100885.92;124297;1106;64968;-83
2021/01/27 00:45:55;;;;;;;23.33;13.30;;;;;;;0.72;89.22;100884.87;124848;1103;64921;-85
2021/01/27 00:48:22;;;;;;;19.90;11.13;;;;;;;0.72;88.91;100880.50;124250;1105;65474;-84
2021/01/27 00:50:49;;;;;;;18.83;10.43;;;;;;;0.70;88.91;100874.55;124297;1103;64806;-85
2021/01/27 00:53:15;;;;;;;21.53;12.10;;;;;;;0.70;88.50;100876.30;124354;1105;64844;-84
2021/01/27 00:55:42;;;;;;;24.37;12.83;;;;;;;0.68;88.70;100875.58;124355;1105;64917;-84
2021/01/27 00:58:08;;;;;;;26.03;13.70;;;;;;;0.64;89.06;100867.14;124461;1104;64991;-84
2021/01/27 01:00:37;;;;;;;24.97;13.23;;;;;;;0.63;88.98;100880.30;124540;1109;64946;-84
2021/01/27 01:03:05;;;;;;;26.80;13.23;;;;;;;0.58;89.24;100870.17;124440;1103;65303;-84
2021/01/27 01:05:41;;;;;;;22.00;12.00;;;;;;;0.54;89.58;100868.72;124566;1106;64937;-84
2021/01/27 01:08:13;;;;;;;26.43;14.00;;;;;;;0.51;89.49;100866.30;124227;1105;65138;-84
2021/01/27 01:10:41;;;;;;;28.57;12.97;;;;;;;0.48;89.58;100862.13;124382;1105;64921;-85
2021/01/27 01:13:12;;;;;;;26.77;13.77;;;;;;;0.46;89.71;100864.02;124552;1105;65001;-84
2021/01/27 01:15:38;;;;;;;23.93;12.43;;;;;;;0.45;89.96;100864.97;124446;1104;65035;-85
2021/01/27 01:18:05;;;;;;;24.80;13.57;;;;;;;0.42;89.94;100857.33;124739;1106;64796;-86
2021/01/27 01:20:31;;;;;;;22.87;12.30;;;;;;;0.40;89.22;100862.68;124638;1106;64055;-85
2021/01/27 01:22:59;;;;;;;29.07;13.05;;;;;;;0.39;89.77;100866.21;124710;1105;64898;-85
2021/01/27 01:25:29;;;;;;;23.17;14.17;;;;;;;0.36;90.24;100871.66;124784;1105;64861;-85
2021/01/27 01:27:56;;;;;;;23.57;13.13;;;;;;;0.36;90.56;100879.48;124565;1105;64905;-86
2021/01/27 01:30:29;;;;;;;31.13;14.27;;;;;;;0.36;89.99;100878.63;124633;1103;64895;-87
2021/01/27 01:32:58;;;;;;;24.13;13.17;;;;;;;0.36;90.33;100886.45;124855;1106;65019;-87
2021/01/27 01:35:24;;;;;;;31.67;14.93;;;;;;;0.37;89.99;100875.92;124573;1105;64953;-85
2021/01/27 01:37:51;;;;;;;22.80;13.50;;;;;;;0.38;90.43;100866.31;124468;1106;64914;-84
2021/01/27 01:40:22;;;;;;;23.17;12.47;;;;;;;0.37;89.98;100860.27;124651;1105;64924;-85
2021/01/27 01:43:18;;;;;;;25.53;14.37;;;;;;;0.36;89.96;100852.53;124602;1103;64947;-84
2021/01/27 01:45:57;;;;;;;30.73;16.10;;;;;;;0.37;90.31;100849.00;124580;1102;64707;-84
2021/01/27 01:48:33;;;;;;;28.90;14.67;;;;;;;0.35;89.58;100843.87;124549;1105;64866;-84
2021/01/27 01:51:24;;;;;;;31.97;15.50;;;;;;;0.34;89.87;100846.58;124614;1105;64732;-85
2021/01/27 01:53:54;;;;;;;26.17;14.17;;;;;;;0.34;89.82;100850.05;124662;1105;64928;-84
2021/01/27 01:56:26;;;;;;;28.97;14.80;;;;;;;0.33;90.46;100850.97;124558;1105;64857;-84
2021/01/27 01:58:56;;;;;;;24.47;13.50;;;;;;;0.30;89.91;100843.37;124589;1105;64947;-84
2021/01/27 02:01:22;;;;;;;30.57;16.30;;;;;;;0.32;89.88;100845.84;124448;1105;64995;-84
2021/01/27 02:03:52;;;;;;;29.83;13.83;;;;;;;0.31;90.30;100849.41;124651;1105;64866;-85
2021/01/27 02:06:19;;;;;;;33.53;16.50;;;;;;;0.30;90.52;100842.51;124304;1104;65032;-85
2021/01/27 02:08:57;;;;;;;30.10;16.47;;;;;;;0.32;89.75;100851.06;124202;1106;64818;-85
2021/01/27 02:11:39;;;;;;;31.77;15.23;;;;;;;0.29;90.33;100841.68;124627;1105;64873;-84
2021/01/27 02:14:24;;;;;;;30.73;12.43;;;;;;;0.29;90.07;100840.85;124775;1105;64933;-84
2021/01/27 02:17:00;;;;;;;35.05;19.60;;;;;;;0.30;90.49;100835.54;124786;1105;66000;-85
2021/01/27 02:19:44;;;;;;;37.17;19.03;;;;;;;0.31;90.55;100831.98;124751;1105;65052;-84
2021/01/27 02:22:53;;;;;;;32.90;17.47;;;;;;;0.35;90.41;100835.22;124433;1103;64917;-85
2021/01/27 02:25:41;;;;;;;32.37;15.23;;;;;;;0.38;90.18;100835.85;124539;1105;65353;-84
2021/01/27 02:28:12;;;;;;;30.27;14.97;;;;;;;0.40;89.75;100839.19;124690;1102;64956;-84
2021/01/27 02:30:55;;;;;;;29.97;17.00;;;;;;;0.41;89.68;100837.41;124811;1106;62954;-85
2021/01/27 02:33:42;;;;;;;33.03;16.67;;;;;;;0.42;90.24;100839.06;124677;1104;64850;-84
2021/01/27 02:36:26;;;;;;;44.93;20.30;;;;;;;0.45;90.08;100830.19;124672;1105;66324;-85
2021/01/27 02:38:59;;;;;;;29.63;14.53;;;;;;;0.49;89.37;100821.20;124726;1106;64800;-85
2021/01/27 02:41:39;;;;;;;35.17;19.03;;;;;;;0.51;89.78;100820.17;124765;1105;64920;-85
2021/01/27 02:44:12;;;;;;;31.53;16.77;;;;;;;0.53;88.94;100813.08;124685;1105;64947;-85
2021/01/27 02:46:48;;;;;;;31.70;16.65;;;;;;;0.54;88.93;100816.52;124625;1105;64779;-84
2021/01/27 02:49:22;;;;;;;30.47;15.53;;;;;;;0.57;88.94;100818.89;124740;1103;64940;-85
2021/01/27 02:52:02;;;;;;;32.13;15.90;;;;;;;0.60;89.72;100814.30;124919;1102;64907;-85
2021/01/27 02:54:36;;;;;;;30.90;17.17;;;;;;;0.65;88.58;100815.76;124698;1105;64921;-84
2021/01/27 02:57:38;;;;;;;40.70;18.15;;;;;;;0.70;89.07;100814.50;124723;1105;65014;-84
2021/01/27 03:00:09;;;;;;;30.83;16.33;;;;;;;0.72;89.04;100810.01;124634;1102;64885;-84
2021/01/27 03:02:47;;;;;;;30.97;14.90;;;;;;;0.74;88.69;100810.70;124503;1105;64920;-85
2021/01/27 03:05:30;;;;;;;33.27;17.43;;;;;;;0.80;88.37;100809.45;124943;1103;64937;-85
2021/01/27 03:08:01;;;;;;;30.70;17.27;;;;;;;0.83;88.39;100809.24;124719;1105;64854;-84
2021/01/27 03:10:36;;;;;;;39.60;18.40;;;;;;;0.88;88.17;100806.30;124669;1102;65763;-85
2021/01/27 03:13:03;;;;;;;28.37;15.70;;;;;;;0.89;88.26;100800.12;124617;1105;64950;-86
2021/01/27 03:15:29;;;;;;;29.40;17.03;;;;;;;0.90;88.29;100797.41;124717;1105;66424;-84
2021/01/27 03:18:00;;;;;;;27.33;15.47;;;;;;;0.90;87.90;100783.52;124530;1105;64937;-86
2021/01/27 03:20:36;;;;;;;27.77;13.60;;;;;;;0.90;87.88;100786.13;124755;1102;64940;-84
2021/01/27 03:23:31;;;;;;;33.30;16.10;;;;;;;0.91;87.76;100790.39;124797;1105;64889;-85
2021/01/27 03:26:19;;;;;;;30.20;17.43;;;;;;;0.90;87.63;100788.74;124611;1103;65068;-83
2021/01/27 03:29:13;;;;;;;30.17;15.67;;;;;;;0.89;87.65;100782.66;124561;1105;65197;-84
2021/01/27 03:31:39;;;;;;;29.00;16.03;;;;;;;0.87;87.78;100781.11;124494;1105;64844;-84
2021/01/27 03:34:13;;;;;;;29.33;14.80;;;;;;;0.85;87.88;100769.94;124577;1105;64751;-85
2021/01/27 03:36:47;;;;;;;26.60;13.90;;;;;;;0.85;87.62;100765.58;124565;1106;65013;-85
2021/01/27 03:39:15;;;;;;;14.67;8.10;;;;;;;0.80;87.35;100758.05;124591;1105;64860;-85
2021/01/27 03:42:05;;;;;;;26.77;14.77;;;;;;;0.86;87.58;100763.79;124473;1106;64419;-83
2021/01/27 03:44:58;;;;;;;26.40;14.73;;;;;;;0.88;87.50;100759.30;124427;1102;64985;-83
2021/01/27 03:47:51;;;;;;;23.87;12.57;;;;;;;0.89;87.29;100771.39;124581;1105;64106;-82
2021/01/27 03:50:24;;;;;;;26.23;14.90;;;;;;;0.87;87.27;100768.05;124532;1105;65014;-83
2021/01/27 03:52:56;;;;;;;25.20;14.50;;;;;;;0.88;86.82;100764.52;124719;1102;64934;-84
2021/01/27 03:55:39;;;;;;;29.80;15.50;;;;;;;0.88;86.97;100769.73;124512;1105;65779;-83
2021/01/27 03:58:13;;;;;;;21.03;11.83;;;;;;;0.87;86.48;100755.85;124512;1105;64921;-82
2021/01/27 04:00:40;;;;;;;22.73;12.78;;;;;;;0.88;86.76;100759.30;124676;1106;64796;-84
2021/01/27 04:03:10;;;;;;;25.93;14.67;;;;;;;0.87;86.65;100745.41;124505;1105;64924;-85
2021/01/27 04:05:36;;;;;;;25.37;14.13;;;;;;;0.88;87.00;100744.45;124750;1105;64828;-84
2021/01/27 04:08:03;;;;;;;31.85;15.85;;;;;;;0.89;86.60;100747.88;124591;1106;64956;-83
2021/01/27 04:10:29;;;;;;;26.27;14.80;;;;;;;0.88;86.29;100738.39;124730;1105;64965;-84
2021/01/27 04:12:56;;;;;;;27.70;15.07;;;;;;;0.88;86.51;100746.23;124702;1105;63705;-84
2021/01/27 04:15:22;;;;;;;23.60;13.17;;;;;;;0.85;86.43;100739.46;124656;1106;65126;-83
2021/01/27 04:17:49;;;;;;;25.70;14.77;;;;;;;0.84;86.58;100739.56;124424;1105;65051;-83
2021/01/27 04:20:16;;;;;;;27.17;14.97;;;;;;;0.83;86.23;100741.34;124774;1105;64939;-84
2021/01/27 04:22:42;;;;;;;29.90;15.60;;;;;;;0.83;86.62;100735.27;124650;1103;64882;-84
2021/01/27 04:25:09;;;;;;;32.43;15.90;;;;;;;0.83;86.19;100737.88;124451;1105;64940;-85
2021/01/27 04:27:35;;;;;;;24.13;14.93;;;;;;;0.81;86.91;100738.84;124650;1103;64888;-85
2021/01/27 04:30:05;;;;;;;27.60;15.00;;;;;;;0.80;86.86;100731.93;125029;1103;65005;-84
2021/01/27 04:32:31;;;;;;;30.20;14.00;;;;;;;0.79;86.97;100729.45;125066;1105;63462;-84
2021/01/27 04:34:57;;;;;;;25.60;13.30;;;;;;;0.76;86.64;100727.05;124718;1105;64862;-83
2021/01/27 04:37:26;;;;;;;29.07;15.07;;;;;;;0.76;86.60;100733.09;124466;1105;64879;-86
2021/01/27 04:39:53;;;;;;;27.60;15.53;;;;;;;0.77;86.24;100726.95;124583;1105;64917;-86
2021/01/27 04:42:28;;;;;;;25.17;12.80;;;;;;;0.79;86.77;100729.45;124570;1106;64863;-86
2021/01/27 04:44:56;;;;;;;24.10;13.75;;;;;;;0.79;86.46;100722.45;124660;1106;66284;-87
2021/01/27 04:48:02;;;;;;;27.70;13.43;;;;;;;0.75;86.70;100722.78;124547;1105;64930;-85
2021/01/27 04:50:51;;;;;;;17.40;10.00;;;;;;;0.72;86.83;100718.63;124659;1102;64793;-84
2021/01/27 04:53:49;;;;;;;26.63;12.80;;;;;;;0.67;86.77;100718.10;124594;1105;64857;-86
2021/01/27 04:56:35;;;;;;;27.83;15.10;;;;;;;0.63;86.53;100714.05;124730;1102;64850;-84
2021/01/27 04:59:07;;;;;;;26.20;15.67;;;;;;;0.61;86.61;100715.93;124721;1105;65336;-86
2021/01/27 05:02:16;;;;;;;29.10;16.07;;;;;;;0.58;87.06;100716.98;124773;1102;65026;-86
2021/01/27 05:04:56;;;;;;;25.30;15.23;;;;;;;0.55;86.84;100716.37;123777;1106;64989;-83
2021/01/27 05:07:47;;;;;;;25.33;11.97;;;;;;;0.54;86.63;100723.38;124307;1105;64973;-85
2021/01/27 05:10:22;;;;;;;23.10;13.07;;;;;;;0.50;86.62;100726.31;124408;1105;64930;-85
2021/01/27 05:12:56;;;;;;;31.30;14.40;;;;;;;0.49;87.22;100716.80;124429;1101;64889;-85
2021/01/27 05:15:24;;;;;;;27.27;14.87;;;;;;;0.47;87.43;100716.94;124545;1105;65082;-85
2021/01/27 05:17:52;;;;;;;34.70;16.10;;;;;;;0.47;87.58;100726.52;124593;1103;65214;-84
2021/01/27 05:20:21;;;;;;;31.37;16.30;;;;;;;0.47;86.80;100708.25;124662;1104;64800;-87
2021/01/27 05:22:47;;;;;;;36.70;16.43;;;;;;;0.47;87.09;100709.10;124707;1105;65004;-84
2021/01/27 05:25:33;;;;;;;28.17;14.27;;;;;;;0.47;87.05;100710.86;124426;1105;64614;-84
2021/01/27 05:28:02;;;;;;;29.23;15.77;;;;;;;0.46;87.62;100703.98;124421;1105;64996;-85
2021/01/27 05:30:44;;;;;;;27.73;14.20;;;;;;;0.46;87.26;100703.98;124642;1105;65291;-86
2021/01/27 05:33:11;;;;;;;32.30;14.57;;;;;;;0.45;87.35;100700.55;124585;1103;64905;-83
2021/01/27 05:35:39;;;;;;;33.90;14.57;;;;;;;0.46;86.88;100706.59;124534;1105;64940;-86
2021/01/27 05:38:24;;;;;;;28.60;14.23;;;;;;;0.45;87.15;100703.16;124515;1102;64789;-85
2021/01/27 05:41:13;;;;;;;25.10;15.35;;;;;;;0.45;87.36;100699.69;124727;1103;64931;-87
2021/01/27 05:43:40;;;;;;;24.47;13.87;;;;;;;0.43;87.07;100701.61;124526;1105;65292;-85
2021/01/27 05:46:28;;;;;;;25.53;14.00;;;;;;;0.42;87.11;100705.14;124648;1102;64898;-85
2021/01/27 05:48:55;;;;;;;25.90;13.70;;;;;;;0.46;87.16;100706.59;124795;1106;63652;-86
2021/01/27 05:51:30;;;;;;;26.83;13.80;;;;;;;0.48;86.77;100699.48;124966;1106;64911;-86
2021/01/27 05:53:58;;;;;;;25.33;13.17;;;;;;;0.50;86.88;100702.83;124862;1105;64963;-86
2021/01/27 05:56:30;;;;;;;23.17;13.10;;;;;;;0.52;86.48;100700.94;124724;1105;63658;-87
2021/01/27 06:02:05;;;;;;;22.50;11.80;;;;;;;0.56;86.57;100702.39;124915;1105;64940;-87
2021/01/27 06:04:34;;;;;;;18.67;10.03;;;;;;;0.58;86.22;100700.50;124816;1106;64928;-87
2021/01/27 06:07:06;;;;;;;25.17;12.60;;;;;;;0.59;85.38;100702.98;124603;1105;65016;-85
2021/01/27 06:09:43;;;;;;;21.83;11.63;;;;;;;0.60;85.74;100693.39;124446;1105;65774;-86
2021/01/27 06:12:18;;;;;;;24.27;13.87;;;;;;;0.57;85.44;100698.82;124655;1105;64870;-88
2021/01/27 06:14:48;;;;;;;22.83;12.47;;;;;;;0.57;86.00;100688.37;124790;1105;64927;-86
2021/01/27 06:17:22;;;;;;;25.37;12.97;;;;;;;0.54;85.58;100692.05;124611;1105;64981;-84
2021/01/27 06:20:04;;;;;;;29.10;13.32;;;;;;;0.54;85.37;100684.22;124363;1105;64950;-85
2021/01/27 06:23:15;;;;;;;25.63;12.87;;;;;;;0.55;85.15;100685.05;124494;1105;65422;-85
2021/01/27 06:26:08;;;;;;;21.30;12.13;;;;;;;0.52;85.19;100680.06;124131;1106;64886;-85
2021/01/27 06:29:16;;;;;;;20.57;11.70;;;;;;;0.50;84.77;100676.73;124252;1105;64910;-84
2021/01/27 06:32:09;;;;;;;19.03;8.63;;;;;;;0.49;84.82;100675.04;124566;1105;64901;-86
2021/01/27 06:34:59;;;;;;;21.03;11.40;;;;;;;0.49;84.85;100670.68;124315;1105;65027;-85
2021/01/27 06:37:46;;;;;;;22.77;10.30;;;;;;;0.49;84.15;100677.66;124407;1105;64914;-85
2021/01/27 06:40:19;;;;;;;23.65;10.70;;;;;;;0.49;83.92;100675.04;124321;1105;64927;-86
2021/01/27 06:43:26;;;;;;;19.07;9.60;;;;;;;0.48;84.34;100668.17;124250;1105;64949;-85
2021/01/27 06:46:16;;;;;;;20.27;10.27;;;;;;;0.47;84.13;100669.09;124360;1105;64883;-87
2021/01/27 06:49:04;;;;;;;20.73;9.43;;;;;;;0.48;84.13;100658.55;124746;1105;65142;-87
2021/01/27 06:51:41;;;;;;;20.23;9.23;;;;;;;0.49;83.28;100661.99;124679;1105;64921;-87
2021/01/27 06:54:42;;;;;;;17.37;10.03;;;;;;;0.50;83.82;100661.06;124550;1106;64923;-87
2021/01/27 06:57:27;;;;;;;13.80;7.77;;;;;;;0.51;83.24;100654.89;124713;1105;64860;-84
2021/01/27 07:00:29;;;;;;;15.07;8.03;;;;;;;0.51;83.72;100667.94;125065;1105;64873;-85
2021/01/27 07:03:19;;;;;;;17.50;8.97;;;;;;;0.50;83.66;100656.67;124852;1105;64687;-85
2021/01/27 07:06:09;;;;;;;16.67;8.30;;;;;;;0.50;83.06;100658.45;124914;1105;64941;-86
2021/01/27 07:09:00;;;;;;;13.00;6.87;;;;;;;0.47;83.24;100650.83;124986;1105;64872;-85
2021/01/27 07:11:55;;;;;;;13.17;6.93;;;;;;;0.45;83.16;100657.94;125089;1105;64873;-85
2021/01/27 07:14:27;;;;;;;15.27;7.17;;;;;;;0.42;83.15;100648.56;124981;1105;64917;-86
2021/01/27 07:17:25;;;;;;;15.00;8.65;;;;;;;0.38;83.17;100645.36;124884;1105;63674;-85
2021/01/27 07:20:11;;;;;;;16.00;8.93;;;;;;;0.38;83.35;100640.14;125282;1105;64072;-85
2021/01/27 07:23:01;;;;;;;16.47;8.37;;;;;;;0.39;82.21;100639.18;125115;1105;64927;-85
2021/01/27 07:25:39;;;;;;;16.50;8.87;;;;;;;0.39;81.93;100640.96;124441;1105;65010;-84
2021/01/27 07:28:17;;;;;;;13.55;7.65;;;;;;;0.36;82.37;100636.80;124781;1106;65001;-84
2021/01/27 07:31:35;;;;;;;13.50;7.13;;;;;;;0.38;81.48;100631.45;123097;1106;65055;-76
2021/01/27 07:34:44;;;;;;;13.43;7.93;;;;;;;0.46;81.88;100636.13;123314;1106;65263;-77
2021/01/27 07:37:19;;;;;;;13.67;8.00;;;;;;;0.47;81.41;100624.73;123435;1105;64927;-76
2021/01/27 07:40:09;;;;;;;9.55;5.15;;;;;;;0.49;81.20;100628.06;123369;1106;65294;-77
2021/01/27 07:42:52;;;;;;;10.00;5.50;;;;;;;0.48;80.24;100615.97;123408;1106;64947;-76
2021/01/27 07:45:22;;;;;;;13.37;6.77;;;;;;;0.50;80.84;100620.13;123383;1105;64943;-76
2021/01/27 07:47:52;;;;;;;12.77;6.13;;;;;;;0.53;80.65;100621.68;123379;1105;65221;-77
2021/01/27 07:50:21;;;;;;;12.97;6.43;;;;;;;0.54;80.35;100620.75;123271;1105;65020;-76
2021/01/27 07:53:12;;;;;;;14.00;6.97;;;;;;;0.55;80.84;100618.03;123341;1106;64915;-76
2021/01/27 07:56:02;;;;;;;12.53;7.57;;;;;;;0.54;80.28;100615.53;123398;1105;65081;-77
2021/01/27 07:58:56;;;;;;;12.07;6.33;;;;;;;0.53;80.12;100606.87;123270;1105;64936;-76
2021/01/27 08:01:29;;;;;;;12.60;6.93;;;;;;;0.55;80.09;100594.55;123319;1105;64921;-76
2021/01/27 08:04:38;;;;;;;12.50;6.77;;;;;;;0.60;80.40;100594.20;123208;1105;66127;-76
2021/01/27 08:07:05;;;;;;;12.17;6.07;;;;;;;0.63;80.14;100590.52;123401;1105;64928;-76
2021/01/27 08:09:34;;;;;;;10.77;6.70;;;;;;;0.65;79.62;100586.85;123520;1105;64917;-78
2021/01/27 08:12:18;;;;;;;9.27;5.57;;;;;;;0.67;79.31;100577.13;123536;1105;64978;-76
2021/01/27 08:15:10;;;;;;;8.70;4.93;;;;;;;0.72;79.17;100577.63;123559;1105;64941;-77
2021/01/27 08:17:55;;;;;;;11.20;5.73;;;;;;;0.82;78.03;100569.92;123738;1105;64899;-77
2021/01/27 08:20:24;;;;;;;10.48;5.70;;;;;;;0.91;77.67;100571.02;123594;1105;64866;-78
2021/01/27 08:22:57;;;;;;;6.17;3.83;;;;;;;0.98;77.36;100567.02;123633;1106;64949;-77
2021/01/27 08:26:00;;;;;;;10.90;5.97;;;;;;;1.05;76.32;100565.59;123639;1106;65056;-76
2021/01/27 08:28:33;;;;;;;11.57;6.10;;;;;;;1.12;76.14;100569.38;123587;1105;65835;-77
2021/01/27 08:31:12;;;;;;;6.17;4.10;;;;;;;1.22;76.02;100570.34;123590;1105;65010;-77
2021/01/27 08:33:41;;;;;;;7.05;3.85;;;;;;;1.29;75.89;100564.66;124687;1105;64924;-77
2021/01/27 08:36:10;;;;;;;8.57;4.77;;;;;;;1.37;76.32;100572.74;123479;1106;64914;-77
2021/01/27 08:38:40;;;;;;;6.85;4.20;;;;;;;1.41;76.06;100574.17;124056;1105;65345;-78
2021/01/27 08:41:12;;;;;;;6.57;3.70;;;;;;;1.44;76.00;100571.30;123434;1106;65426;-76
2021/01/27 08:43:51;;;;;;;7.43;4.97;;;;;;;1.48;76.47;100577.13;123392;1105;66045;-76
2021/01/27 08:46:32;;;;;;;7.13;4.17;;;;;;;1.50;76.44;100577.84;123428;1105;64822;-77
2021/01/27 08:49:00;;;;;;;8.53;4.10;;;;;;;1.52;76.57;100576.77;123498;1105;65535;-78
2021/01/27 08:51:50;;;;;;;11.83;5.87;;;;;;;1.52;76.69;100576.77;123628;1105;64940;-77
2021/01/27 08:54:45;;;;;;;11.00;5.50;;;;;;;1.54;76.08;100574.87;123428;1105;65303;-78
2021/01/27 08:57:17;;;;;;;9.33;4.33;;;;;;;1.56;76.61;100587.83;123351;1105;64953;-77
2021/01/27 08:59:55;;;;;;;10.40;5.87;;;;;;;1.53;76.27;100581.06;123398;1105;65001;-77
2021/01/27 09:02:59;;;;;;;10.57;6.10;;;;;;;1.50;76.70;100570.83;123413;1105;65534;-78
2021/01/27 09:05:26;;;;;;;8.50;4.70;;;;;;;1.49;76.63;100566.56;123860;1105;64654;-78
2021/01/27 09:08:18;;;;;;;11.38;6.70;;;;;;;1.50;76.32;100567.39;123591;1105;65021;-77
2021/01/27 09:10:55;;;;;;;10.75;5.10;;;;;;;1.49;76.18;100571.80;123483;1105;65809;-78
2021/01/27 09:13:38;;;;;;;7.00;4.40;;;;;;;1.50;76.25;100568.22;123257;1106;64924;-78
2021/01/27 09:16:04;;;;;;;6.63;3.63;;;;;;;1.52;76.05;100565.49;124672;1105;64987;-78
2021/01/27 09:18:32;;;;;;;8.90;5.10;;;;;;;1.58;76.43;100563.23;123314;1105;65356;-77
2021/01/27 09:21:14;;;;;;;13.33;6.80;;;;;;;1.70;76.70;100564.06;123299;1105;64927;-78
2021/01/27 09:23:46;;;;;;;14.07;7.43;;;;;;;1.81;75.94;100560.59;123478;1105;64962;-79
2021/01/27 09:26:13;;;;;;;10.60;6.40;;;;;;;1.86;75.56;100563.66;123466;1105;64882;-79
2021/01/27 09:28:43;;;;;;;11.35;6.35;;;;;;;1.92;75.56;100557.12;123480;1106;65740;-79
2021/01/27 09:31:15;;;;;;;6.80;4.07;;;;;;;1.98;75.26;100554.02;123294;1106;64974;-78
2021/01/27 09:33:42;;;;;;;7.27;4.40;;;;;;;2.00;74.45;100550.32;123412;1105;64924;-77
2021/01/27 09:36:30;;;;;;;10.17;6.07;;;;;;;2.02;75.07;100553.65;123289;1105;64975;-77
2021/01/27 09:38:58;;;;;;;;;;;;;;;2.08;74.99;100548.86;123462;1105;64927;-78
2021/01/27 09:41:31;;;;;;;6.70;3.93;;;;;;;2.12;74.01;100558.13;123457;1105;64926;-78
2021/01/27 09:44:01;;;;;;;6.33;4.37;;;;;;;2.14;73.71;100562.28;123614;1105;65074;-78
2021/01/27 09:46:40;;;;;;;5.97;3.17;;;;;;;2.17;73.05;100550.76;123328;1105;65004;-79
2021/01/27 09:49:11;;;;;;;8.77;5.87;;;;;;;2.18;72.47;100562.87;123450;1105;64943;-78
2021/01/27 09:51:47;;;;;;;7.25;4.75;;;;;;;2.23;72.52;100560.70;123426;1105;64929;-77
2021/01/27 09:54:14;;;;;;;5.53;4.33;;;;;;;2.31;72.39;100562.70;123752;1105;64908;-78
2021/01/27 09:56:41;;;;;;;8.80;4.80;;;;;;;2.39;71.37;100561.12;123302;1105;65008;-76
2021/01/27 09:59:15;;;;;;;7.63;5.20;;;;;;;2.44;72.03;100564.22;123358;1105;64969;-79
2021/01/27 10:01:47;;;;;;;8.90;4.63;;;;;;;2.50;71.53;100568.09;123375;1105;64975;-78
2021/01/27 10:04:15;;;;;;;7.85;4.50;;;;;;;2.49;70.84;100560.36;123940;1105;64924;-74
2021/01/27 10:06:56;;;;;;;6.47;4.30;;;;;;;2.49;71.24;100555.98;123233;1106;64921;-77
2021/01/27 10:09:27;;;;;;;7.77;4.37;;;;;;;2.43;70.73;100549.45;123592;1105;65327;-79
2021/01/27 10:12:22;;;;;;;8.37;4.93;;;;;;;2.41;69.94;100546.13;123985;1105;64978;-80
2021/01/27 10:14:56;;;;;;;5.23;3.27;;;;;;;2.44;70.45;100545.03;124524;1105;65020;-80
2021/01/27 10:17:29;;;;;;;5.97;4.35;;;;;;;2.47;70.01;100543.98;124622;1105;64873;-78
2021/01/27 10:20:25;;;;;;;5.43;3.70;;;;;;;2.53;70.03;100546.06;123782;1106;65266;-79
2021/01/27 10:22:56;;;;;;;4.83;2.93;;;;;;;2.62;70.56;100542.70;123606;1106;65354;-78
2021/01/27 10:25:29;;;;;;;4.33;3.27;;;;;;;2.67;68.88;100532.66;123910;1105;64920;-79
2021/01/27 10:28:02;;;;;;;6.87;4.00;;;;;;;2.73;69.78;100536.57;124103;1105;64901;-79
2021/01/27 10:30:54;;;;;;;7.30;5.10;;;;;;;2.78;69.51;100529.97;124022;1106;64941;-79
2021/01/27 10:33:32;;;;;;;8.00;4.70;;;;;;;2.82;69.90;100531.38;123607;1105;65022;-77
2021/01/27 10:36:19;;;;;;;5.80;3.37;;;;;;;2.84;70.39;100524.22;123370;1105;65387;-78
2021/01/27 10:38:46;;;;;;;7.30;4.13;;;;;;;2.90;69.76;100527.30;123359;1105;64920;-79
2021/01/27 10:41:22;;;;;;;7.83;4.50;;;;;;;2.88;68.38;100519.56;123214;1105;64995;-78
2021/01/27 10:43:48;;;;;;;6.70;4.70;;;;;;;3.00;68.45;100518.53;123173;1105;64924;-79
2021/01/27 10:46:34;;;;;;;8.70;4.50;;;;;;;3.02;68.06;100515.78;123149;1104;64908;-76
2021/01/27 10:49:00;;;;;;;7.20;4.17;;;;;;;2.99;68.35;100510.79;123409;1105;65004;-78
2021/01/27 10:51:26;;;;;;;5.63;3.63;;;;;;;2.94;68.26;100503.32;123355;1106;66147;-79
2021/01/27 10:53:54;;;;;;;6.90;4.10;;;;;;;2.77;68.18;100509.16;123376;1105;65022;-77
2021/01/27 10:56:20;;;;;;;6.23;3.97;;;;;;;2.65;69.22;100518.86;123393;1105;65363;-78
2021/01/27 10:58:50;;;;;;;6.73;4.43;;;;;;;2.59;68.83;100519.38;123264;1105;65010;-78
2021/01/27 11:01:16;;;;;;;8.03;4.73;;;;;;;2.53;69.69;100514.64;123279;1105;65074;-78
2021/01/27 11:03:43;;;;;;;7.03;4.80;;;;;;;2.49;69.27;100503.61;123367;1105;65697;-76
2021/01/27 11:06:09;;;;;;;9.47;5.17;;;;;;;2.41;70.04;100506.85;123178;1105;65001;-78
2021/01/27 11:08:42;;;;;;;10.53;5.07;;;;;;;2.36;70.83;100500.33;123287;1105;64981;-79
2021/01/27 11:11:08;;;;;;;8.05;4.50;;;;;;;2.27;70.84;100501.09;123287;1109;65027;-78
2021/01/27 11:13:35;;;;;;;9.17;5.47;;;;;;;2.20;71.79;100498.16;123384;1105;65888;-78
2021/01/27 11:16:05;;;;;;;5.87;3.33;;;;;;;2.11;72.54;100494.50;123617;1106;65410;-79
2021/01/27 11:18:33;;;;;;;8.47;5.17;;;;;;;2.02;73.58;100490.86;123490;1107;65039;-79
2021/01/27 11:21:02;;;;;;;6.20;4.00;;;;;;;1.95;73.64;100496.70;123425;1105;64937;-79
2021/01/27 11:23:28;;;;;;;7.27;4.20;;;;;;;1.88;74.77;100493.75;123533;1109;64899;-79
2021/01/27 11:25:55;;;;;;;8.17;4.23;;;;;;;1.84;75.42;100497.56;123582;1105;64914;-79
2021/01/27 11:28:23;;;;;;;7.10;4.23;;;;;;;1.83;75.06;100506.38;123331;1105;65112;-78
2021/01/27 11:30:50;;;;;;;7.70;4.40;;;;;;;1.85;75.57;100504.47;123491;1105;64905;-77
2021/01/27 11:33:22;;;;;;;4.97;3.13;;;;;;;1.89;75.99;100494.58;123407;1105;65068;-77
2021/01/27 11:35:49;;;;;;;8.30;4.40;;;;;;;1.92;76.15;100491.73;123268;1106;64936;-78
2021/01/27 11:38:16;;;;;;;6.80;4.43;;;;;;;1.98;76.04;100481.59;123642;1105;64953;-78
2021/01/27 11:40:43;;;;;;;8.27;4.87;;;;;;;2.04;76.71;100470.63;123449;1105;64936;-78
2021/01/27 11:43:10;;;;;;;9.00;4.17;;;;;;;2.09;76.81;100470.25;123658;1109;64998;-78
2021/01/27 11:45:37;;;;;;;5.30;3.37;;;;;;;2.10;76.54;100476.30;123227;1105;64915;-78
2021/01/27 11:48:23;;;;;;;6.70;4.10;;;;;;;2.17;76.78;100473.08;123210;1106;65010;-79
2021/01/27 11:50:50;;;;;;;7.47;3.97;;;;;;;2.19;77.14;100480.77;123246;1107;64924;-77
2021/01/27 11:53:16;;;;;;;5.00;2.97;;;;;;;2.11;77.11;100488.45;123473;1105;64924;-78
2021/01/27 11:55:42;;;;;;;6.10;3.40;;;;;;;1.96;78.35;100474.83;123338;1105;64952;-77
2021/01/27 11:58:09;;;;;;;4.92;3.33;;;;;;;1.80;79.45;100465.59;123179;1105;64972;-76